createdAt,value
2023-03-28T00:00:07.205Z,2.80
2023-03-28T00:01:07.179Z,2.79
2023-03-28T00:02:07.191Z,2.79
2023-03-28T00:03:07.200Z,2.79
2023-03-28T00:04:07.310Z,2.79
2023-03-28T00:05:07.126Z,2.79
2023-03-28T00:06:07.172Z,2.77
2023-03-28T00:07:07.094Z,2.77
2023-03-28T00:08:07.097Z,2.77
2023-03-28T00:09:07.085Z,2.77
2023-03-28T00:10:07.069Z,2.77
2023-03-28T00:11:07.069Z,2.75
2023-03-28T00:12:07.043Z,2.75
2023-03-28T00:13:07.092Z,2.75
2023-03-28T00:14:07.125Z,2.75
2023-03-28T00:15:07.002Z,2.77
2023-03-28T00:16:07.033Z,2.72
2023-03-28T00:17:06.972Z,2.75
2023-03-28T00:18:06.968Z,2.74
2023-03-28T00:19:06.963Z,2.75
2023-03-28T00:20:08.709Z,2.74
2023-03-28T00:21:06.916Z,2.71
2023-03-28T00:22:06.911Z,2.72
2023-03-28T00:23:06.948Z,2.72
2023-03-28T00:24:06.903Z,2.72
2023-03-28T00:25:06.872Z,2.71
2023-03-28T00:26:06.861Z,2.71
2023-03-28T00:27:06.881Z,2.71
2023-03-28T00:28:06.835Z,2.68
2023-03-28T00:29:06.858Z,2.68
2023-03-28T00:30:06.806Z,2.67
2023-03-28T00:31:06.816Z,2.67
2023-03-28T00:32:06.788Z,2.67
2023-03-28T00:33:06.834Z,2.62
2023-03-28T00:34:06.773Z,2.64
2023-03-28T00:35:06.751Z,2.64
2023-03-28T00:36:06.758Z,2.64
2023-03-28T00:37:06.712Z,2.62
2023-03-28T00:38:06.709Z,2.62
2023-03-28T00:39:07.048Z,2.60
2023-03-28T00:40:06.679Z,2.57
2023-03-28T00:41:06.656Z,2.57
2023-03-28T00:42:06.659Z,2.57
2023-03-28T00:43:06.642Z,2.54
2023-03-28T00:44:06.648Z,2.54
2023-03-28T00:45:06.632Z,2.53
2023-03-28T00:46:09.169Z,2.54
2023-03-28T00:47:06.642Z,2.51
2023-03-28T00:48:06.614Z,2.51
2023-03-28T00:49:07.575Z,2.51
2023-03-28T00:50:06.562Z,2.49
2023-03-28T00:51:06.538Z,2.47
2023-03-28T00:52:06.529Z,2.50
2023-03-28T00:53:06.520Z,2.47
2023-03-28T00:54:06.526Z,2.47
2023-03-28T00:55:06.487Z,2.46
2023-03-28T00:56:06.478Z,2.44
2023-03-28T00:57:06.482Z,2.44
2023-03-28T00:58:06.453Z,2.42
2023-03-28T00:59:06.459Z,2.43
2023-03-28T01:00:06.432Z,2.43
2023-03-28T01:01:06.412Z,2.44
2023-03-28T01:02:06.495Z,2.42
2023-03-28T01:03:06.446Z,2.42
2023-03-28T01:04:06.384Z,2.39
2023-03-28T01:05:06.362Z,2.39
2023-03-28T01:06:06.346Z,2.38
2023-03-28T01:07:06.339Z,2.39
2023-03-28T01:08:06.323Z,2.38
2023-03-28T01:09:06.320Z,2.38
2023-03-28T01:10:06.296Z,2.38
2023-03-28T01:11:06.304Z,2.39
2023-03-28T01:12:06.280Z,2.36
2023-03-28T01:13:06.252Z,2.36
2023-03-28T01:14:06.269Z,2.35
2023-03-28T01:15:06.235Z,2.36
2023-03-28T01:16:06.261Z,2.35
2023-03-28T01:17:06.195Z,2.33
2023-03-28T01:18:06.239Z,2.35
2023-03-28T01:19:06.172Z,2.36
2023-03-28T01:20:06.175Z,2.33
2023-03-28T01:21:06.150Z,2.33
2023-03-28T01:22:06.139Z,2.33
2023-03-28T01:23:06.125Z,2.33
2023-03-28T01:24:10.997Z,2.35
2023-03-28T01:25:07.131Z,2.33
2023-03-28T01:26:06.090Z,2.33
2023-03-28T01:27:06.069Z,2.32
2023-03-28T01:28:06.061Z,2.32
2023-03-28T01:29:06.044Z,2.31
2023-03-28T01:30:06.048Z,2.32
2023-03-28T01:31:06.047Z,2.32
2023-03-28T01:32:06.018Z,2.29
2023-03-28T01:33:06.037Z,2.31
2023-03-28T01:34:05.994Z,2.31
2023-03-28T01:35:05.987Z,2.32
2023-03-28T01:36:06.072Z,2.28
2023-03-28T01:37:05.939Z,2.29
2023-03-28T01:38:05.946Z,2.29
2023-03-28T01:39:05.928Z,2.31
2023-03-28T01:40:05.949Z,2.28
2023-03-28T01:41:05.895Z,2.29
2023-03-28T01:42:05.882Z,2.29
2023-03-28T01:43:05.864Z,2.28
2023-03-28T01:44:05.856Z,2.31
2023-03-28T01:45:05.861Z,2.28
2023-03-28T01:46:05.867Z,2.29
2023-03-28T01:47:05.822Z,2.26
2023-03-28T01:48:05.827Z,2.28
2023-03-28T01:49:05.802Z,2.28
2023-03-28T01:50:05.807Z,2.29
2023-03-28T01:51:05.775Z,2.28
2023-03-28T01:52:05.765Z,2.28
2023-03-28T01:53:05.736Z,2.29
2023-03-28T01:54:05.734Z,2.28
2023-03-28T01:55:05.733Z,2.26
2023-03-28T01:56:05.704Z,2.28
2023-03-28T01:57:05.792Z,2.28
2023-03-28T01:58:05.700Z,2.26
2023-03-28T01:59:05.684Z,2.28
2023-03-28T02:00:05.668Z,2.26
2023-03-28T02:01:05.711Z,2.29
2023-03-28T02:02:05.682Z,2.26
2023-03-28T02:03:05.877Z,2.29
2023-03-28T02:04:05.622Z,2.28
2023-03-28T02:05:06.606Z,2.26
2023-03-28T02:06:05.604Z,2.28
2023-03-28T02:07:05.569Z,2.26
2023-03-28T02:08:05.550Z,2.28
2023-03-28T02:09:05.537Z,2.28
2023-03-28T02:10:05.538Z,2.26
2023-03-28T02:11:05.547Z,2.26
2023-03-28T02:12:05.506Z,2.26
2023-03-28T02:13:05.489Z,2.29
2023-03-28T02:14:05.488Z,2.26
2023-03-28T02:15:05.480Z,2.28
2023-03-28T02:16:05.477Z,2.26
2023-03-28T02:17:05.446Z,2.26
2023-03-28T02:18:05.464Z,2.26
2023-03-28T02:19:05.423Z,2.26
2023-03-28T02:20:05.447Z,2.26
2023-03-28T02:21:05.405Z,2.26
2023-03-28T02:22:06.068Z,2.28
2023-03-28T02:23:05.380Z,2.28
2023-03-28T02:24:05.366Z,2.28
2023-03-28T02:25:05.373Z,2.26
2023-03-28T02:26:05.415Z,2.28
2023-03-28T02:27:05.336Z,2.26
2023-03-28T02:28:05.307Z,2.25
2023-03-28T02:29:05.294Z,2.26
2023-03-28T02:30:05.298Z,2.26
2023-03-28T02:31:05.271Z,2.25
2023-03-28T02:32:05.317Z,2.25
2023-03-28T02:33:05.297Z,2.24
2023-03-28T02:34:05.230Z,2.26
2023-03-28T02:35:05.238Z,2.25
2023-03-28T02:36:06.134Z,2.25
2023-03-28T02:37:05.201Z,2.24
2023-03-28T02:38:05.179Z,2.22
2023-03-28T02:39:05.185Z,2.20
2023-03-28T02:40:05.163Z,2.22
2023-03-28T02:41:05.150Z,2.22
2023-03-28T02:42:05.129Z,2.20
2023-03-28T02:43:05.113Z,2.20
2023-03-28T02:44:05.111Z,2.18
2023-03-28T02:45:05.107Z,2.17
2023-03-28T02:46:05.198Z,2.18
2023-03-28T02:47:05.070Z,2.17
2023-03-28T02:48:05.089Z,2.17
2023-03-28T02:49:05.063Z,2.17
2023-03-28T02:50:05.049Z,2.15
2023-03-28T02:51:05.013Z,2.15
2023-03-28T02:52:05.009Z,2.15
2023-03-28T02:53:04.994Z,2.15
2023-03-28T02:54:04.979Z,2.15
2023-03-28T02:55:04.980Z,2.13
2023-03-28T02:56:04.957Z,2.14
2023-03-28T02:57:05.082Z,2.13
2023-03-28T02:58:04.930Z,2.13
2023-03-28T02:59:04.921Z,2.11
2023-03-28T03:00:04.908Z,2.13
2023-03-28T03:01:04.949Z,2.13
2023-03-28T03:02:04.879Z,2.13
2023-03-28T03:03:04.920Z,2.10
2023-03-28T03:04:04.895Z,2.13
2023-03-28T03:05:04.856Z,2.11
2023-03-28T03:06:04.825Z,2.11
2023-03-28T03:07:04.819Z,2.11
2023-03-28T03:08:04.808Z,2.11
2023-03-28T03:09:04.837Z,2.13
2023-03-28T03:10:04.794Z,2.11
2023-03-28T03:11:04.791Z,2.11
2023-03-28T03:12:04.745Z,2.13
2023-03-28T03:13:04.744Z,2.11
2023-03-28T03:14:04.737Z,2.13
2023-03-28T03:15:04.733Z,2.11
2023-03-28T03:16:04.769Z,2.13
2023-03-28T03:17:04.688Z,2.11
2023-03-28T03:18:04.780Z,2.10
2023-03-28T03:19:04.665Z,2.10
2023-03-28T03:20:04.673Z,2.10
2023-03-28T03:21:04.639Z,2.10
2023-03-28T03:22:04.622Z,2.08
2023-03-28T03:23:04.618Z,2.08
2023-03-28T03:24:04.603Z,2.08
2023-03-28T03:25:04.589Z,2.08
2023-03-28T03:26:04.590Z,2.08
2023-03-28T03:27:04.559Z,2.07
2023-03-28T03:28:04.544Z,2.08
2023-03-28T03:29:04.536Z,2.07
2023-03-28T03:30:04.527Z,2.07
2023-03-28T03:31:04.593Z,2.07
2023-03-28T03:32:04.496Z,2.07
2023-03-28T03:33:04.521Z,2.06
2023-03-28T03:34:04.478Z,2.06
2023-03-28T03:35:04.465Z,2.06
2023-03-28T03:36:04.534Z,2.07
2023-03-28T03:37:04.436Z,2.06
2023-03-28T03:38:04.417Z,2.07
2023-03-28T03:39:04.401Z,2.04
2023-03-28T03:40:04.425Z,2.07
2023-03-28T03:41:04.398Z,2.06
2023-03-28T03:42:04.363Z,2.06
2023-03-28T03:43:04.358Z,2.06
2023-03-28T03:44:04.350Z,2.07
2023-03-28T03:45:04.326Z,2.06
2023-03-28T03:46:04.577Z,2.04
2023-03-28T03:47:04.325Z,2.06
2023-03-28T03:48:04.370Z,2.04
2023-03-28T03:49:04.280Z,2.06
2023-03-28T03:50:04.273Z,2.06
2023-03-28T03:51:04.270Z,2.04
2023-03-28T03:52:04.235Z,2.02
2023-03-28T03:53:04.230Z,2.02
2023-03-28T03:54:04.218Z,2.04
2023-03-28T03:55:04.224Z,2.02
2023-03-28T03:56:04.200Z,2.02
2023-03-28T03:57:04.270Z,2.02
2023-03-28T03:58:04.163Z,2.02
2023-03-28T03:59:04.144Z,2.00
2023-03-28T04:00:04.127Z,1.99
2023-03-28T04:01:04.155Z,1.99
2023-03-28T04:02:04.172Z,1.99
2023-03-28T04:03:04.150Z,1.97
2023-03-28T04:04:04.164Z,1.95
2023-03-28T04:05:04.082Z,1.95
2023-03-28T04:06:04.736Z,1.95
2023-03-28T04:07:04.057Z,1.95
2023-03-28T04:08:04.156Z,1.94
2023-03-28T04:09:04.030Z,1.94
2023-03-28T04:10:04.004Z,1.94
2023-03-28T04:11:04.017Z,1.91
2023-03-28T04:12:03.976Z,1.92
2023-03-28T04:13:03.978Z,1.89
2023-03-28T04:14:03.969Z,1.89
2023-03-28T04:15:03.942Z,1.89
2023-03-28T04:16:04.063Z,1.88
2023-03-28T04:17:03.946Z,1.87
2023-03-28T04:18:06.271Z,1.88
2023-03-28T04:19:03.900Z,1.87
2023-03-28T04:20:03.885Z,1.85
2023-03-28T04:21:03.878Z,1.85
2023-03-28T04:22:03.848Z,1.84
2023-03-28T04:23:03.936Z,1.84
2023-03-28T04:24:03.833Z,1.84
2023-03-28T04:25:03.826Z,1.84
2023-03-28T04:26:03.830Z,1.81
2023-03-28T04:27:03.791Z,1.81
2023-03-28T04:28:03.781Z,1.81
2023-03-28T04:29:03.767Z,1.80
2023-03-28T04:30:03.756Z,1.78
2023-03-28T04:31:03.775Z,1.80
2023-03-28T04:32:03.752Z,1.80
2023-03-28T04:33:03.772Z,1.78
2023-03-28T04:34:03.755Z,1.78
2023-03-28T04:35:03.697Z,1.77
2023-03-28T04:36:03.906Z,1.77
2023-03-28T04:37:03.701Z,1.76
2023-03-28T04:38:03.660Z,1.77
2023-03-28T04:39:03.642Z,1.76
2023-03-28T04:40:03.633Z,1.76
2023-03-28T04:41:03.629Z,1.74
2023-03-28T04:42:03.633Z,1.74
2023-03-28T04:43:03.602Z,1.73
2023-03-28T04:44:03.578Z,1.73
2023-03-28T04:45:03.565Z,1.71
2023-03-28T04:46:03.811Z,1.70
2023-03-28T04:47:03.537Z,1.70
2023-03-28T04:48:03.616Z,1.68
2023-03-28T04:49:03.514Z,1.67
2023-03-28T04:50:03.501Z,1.67
2023-03-28T04:51:03.503Z,1.66
2023-03-28T04:52:03.474Z,1.63
2023-03-28T04:53:03.468Z,1.63
2023-03-28T04:54:03.465Z,1.63
2023-03-28T04:55:03.458Z,1.62
2023-03-28T04:56:03.441Z,1.60
2023-03-28T04:57:03.469Z,1.62
2023-03-28T04:58:03.439Z,1.59
2023-03-28T04:59:03.403Z,1.59
2023-03-28T05:00:03.371Z,1.58
2023-03-28T05:01:03.724Z,1.60
2023-03-28T05:02:03.394Z,1.59
2023-03-28T05:03:03.389Z,1.58
2023-03-28T05:04:03.326Z,1.59
2023-03-28T05:05:03.322Z,1.58
2023-03-28T05:06:03.317Z,1.58
2023-03-28T05:07:03.292Z,1.58
2023-03-28T05:08:03.282Z,1.56
2023-03-28T05:09:03.275Z,1.56
2023-03-28T05:10:03.344Z,1.58
2023-03-28T05:11:03.246Z,1.58
2023-03-28T05:12:03.219Z,1.58
2023-03-28T05:13:03.204Z,1.56
2023-03-28T05:14:03.203Z,1.56
2023-03-28T05:15:03.182Z,1.58
2023-03-28T05:16:03.237Z,1.56
2023-03-28T05:17:03.158Z,1.58
2023-03-28T05:18:03.226Z,1.59
2023-03-28T05:19:03.137Z,1.59
2023-03-28T05:20:03.144Z,1.59
2023-03-28T05:21:03.123Z,1.59
2023-03-28T05:22:03.104Z,1.59
2023-03-28T05:23:03.077Z,1.59
2023-03-28T05:24:03.068Z,1.59
2023-03-28T05:25:03.049Z,1.60
2023-03-28T05:26:03.055Z,1.60
2023-03-28T05:27:03.021Z,1.60
2023-03-28T05:28:03.025Z,1.60
2023-03-28T05:29:03.003Z,1.62
2023-03-28T05:30:02.985Z,1.62
2023-03-28T05:31:02.988Z,1.62
2023-03-28T05:32:03.020Z,1.66
2023-03-28T05:33:02.978Z,1.62
2023-03-28T05:34:02.959Z,1.63
2023-03-28T05:35:02.927Z,1.63
2023-03-28T05:36:02.993Z,1.66
2023-03-28T05:37:02.900Z,1.66
2023-03-28T05:38:02.880Z,1.63
2023-03-28T05:39:02.874Z,1.67
2023-03-28T05:40:02.860Z,1.67
2023-03-28T05:41:03.082Z,1.71
2023-03-28T05:42:02.832Z,1.73
2023-03-28T05:43:02.827Z,1.76
2023-03-28T05:44:02.813Z,1.80
2023-03-28T05:45:02.807Z,1.87
2023-03-28T05:46:02.814Z,1.88
2023-03-28T05:47:02.766Z,1.92
2023-03-28T05:48:02.813Z,1.91
2023-03-28T05:49:02.746Z,1.89
2023-03-28T05:50:02.844Z,1.92
2023-03-28T05:51:02.731Z,1.95
2023-03-28T05:52:02.737Z,1.97
2023-03-28T05:53:02.701Z,2.00
2023-03-28T05:54:02.695Z,2.06
2023-03-28T05:55:02.670Z,2.11
2023-03-28T05:56:02.675Z,2.11
2023-03-28T05:57:02.715Z,2.14
2023-03-28T05:58:02.633Z,2.17
2023-03-28T05:59:02.626Z,2.18
2023-03-28T06:00:02.602Z,2.17
2023-03-28T06:01:02.716Z,2.18
2023-03-28T06:02:02.605Z,2.20
2023-03-28T06:03:02.673Z,2.24
2023-03-28T06:04:02.631Z,2.26
2023-03-28T06:05:02.645Z,2.25
2023-03-28T06:06:02.526Z,2.28
2023-03-28T06:07:03.242Z,2.28
2023-03-28T06:08:02.492Z,2.29
2023-03-28T06:09:02.502Z,2.29
2023-03-28T06:10:02.459Z,2.32
2023-03-28T06:11:02.640Z,2.32
2023-03-28T06:12:02.431Z,2.33
2023-03-28T06:13:02.435Z,2.35
2023-03-28T06:14:02.421Z,2.36
2023-03-28T06:15:02.405Z,2.39
2023-03-28T06:16:02.394Z,2.42
2023-03-28T06:17:02.427Z,2.47
2023-03-28T06:18:02.446Z,2.51
2023-03-28T06:19:16.494Z,2.57
2023-03-28T06:20:03.393Z,2.65
2023-03-28T06:21:02.682Z,2.72
2023-03-28T06:22:02.832Z,2.80
2023-03-28T06:23:02.302Z,2.87
2023-03-28T06:24:02.277Z,2.98
2023-03-28T06:25:02.277Z,3.07
2023-03-28T06:26:02.268Z,3.14
2023-03-28T06:27:02.242Z,3.23
2023-03-28T06:28:02.221Z,3.31
2023-03-28T06:29:02.216Z,3.41
2023-03-28T06:30:02.203Z,3.48
2023-03-28T06:31:02.682Z,3.59
2023-03-28T06:32:02.190Z,3.68
2023-03-28T06:33:02.176Z,3.77
2023-03-28T06:34:02.153Z,3.83
2023-03-28T06:35:02.189Z,3.87
2023-03-28T06:36:02.156Z,3.95
2023-03-28T06:37:02.114Z,3.96
2023-03-28T06:38:02.151Z,4.01
2023-03-28T06:39:02.095Z,4.02
2023-03-28T06:40:02.222Z,4.06
2023-03-28T06:41:02.173Z,4.08
2023-03-28T06:42:02.054Z,4.08
2023-03-28T06:43:02.039Z,4.12
2023-03-28T06:44:02.018Z,4.13
2023-03-28T06:45:02.059Z,4.13
2023-03-28T06:46:02.033Z,4.16
2023-03-28T06:47:02.038Z,4.22
2023-03-28T06:48:02.024Z,4.28
2023-03-28T06:49:01.962Z,4.31
2023-03-28T06:50:01.982Z,4.35
2023-03-28T06:51:02.117Z,4.38
2023-03-28T06:52:01.992Z,4.41
2023-03-28T06:53:01.937Z,4.44
2023-03-28T06:54:01.891Z,4.48
2023-03-28T06:55:01.953Z,4.48
2023-03-28T06:56:01.866Z,4.48
2023-03-28T06:57:01.920Z,4.48
2023-03-28T06:58:01.848Z,4.48
2023-03-28T06:59:01.828Z,4.49
2023-03-28T07:00:01.834Z,4.49
2023-03-28T07:01:01.943Z,4.48
2023-03-28T07:02:01.908Z,4.49
2023-03-28T07:03:01.866Z,4.50
2023-03-28T07:04:01.856Z,4.52
2023-03-28T07:05:01.744Z,4.56
2023-03-28T07:06:01.738Z,4.59
2023-03-28T07:07:01.782Z,4.62
2023-03-28T07:08:01.713Z,4.67
2023-03-28T07:09:03.424Z,4.68
2023-03-28T07:10:01.687Z,4.73
2023-03-28T07:11:01.965Z,4.78
2023-03-28T07:12:01.669Z,4.89
2023-03-28T07:13:01.650Z,4.99
2023-03-28T07:14:01.640Z,5.05
2023-03-28T07:15:01.626Z,5.11
2023-03-28T07:16:01.752Z,5.25
2023-03-28T07:17:01.666Z,5.30
2023-03-28T07:18:01.646Z,5.33
2023-03-28T07:19:01.573Z,5.35
2023-03-28T07:20:01.666Z,5.38
2023-03-28T07:21:04.307Z,5.39
2023-03-28T07:22:01.553Z,5.43
2023-03-28T07:23:01.512Z,5.44
2023-03-28T07:24:01.510Z,5.44
2023-03-28T07:25:01.512Z,5.44
2023-03-28T07:26:01.486Z,5.43
2023-03-28T07:27:14.214Z,5.43
2023-03-28T07:28:02.460Z,5.43
2023-03-28T07:29:01.464Z,5.43
2023-03-28T07:30:01.431Z,5.43
2023-03-28T07:31:01.723Z,5.44
2023-03-28T07:32:01.475Z,5.44
2023-03-28T07:33:13.003Z,5.47
2023-03-28T07:34:02.384Z,5.50
2023-03-28T07:35:01.366Z,5.57
2023-03-28T07:36:01.431Z,5.61
2023-03-28T07:37:01.352Z,5.65
2023-03-28T07:38:01.327Z,5.69
2023-03-28T07:39:01.347Z,5.76
2023-03-28T07:40:01.303Z,5.80
2023-03-28T07:41:01.754Z,5.84
2023-03-28T07:42:01.296Z,5.86
2023-03-28T07:43:01.278Z,5.90
2023-03-28T07:44:01.251Z,5.94
2023-03-28T07:45:01.238Z,5.98
2023-03-28T07:46:01.273Z,6.04
2023-03-28T07:47:01.226Z,6.08
2023-03-28T07:48:01.208Z,6.12
2023-03-28T07:49:01.195Z,6.17
2023-03-28T07:50:01.177Z,6.22
2023-03-28T07:51:01.373Z,6.27
2023-03-28T07:52:01.162Z,6.31
2023-03-28T07:53:01.145Z,6.39
2023-03-28T07:54:01.125Z,6.52
2023-03-28T07:55:01.103Z,6.62
2023-03-28T07:56:01.109Z,6.81
2023-03-28T07:57:01.164Z,6.89
2023-03-28T07:58:01.077Z,6.93
2023-03-28T07:59:01.052Z,6.95
2023-03-28T08:00:01.047Z,6.93
2023-03-28T08:01:01.152Z,6.92
2023-03-28T08:02:01.035Z,6.92
2023-03-28T08:03:01.095Z,6.89
2023-03-28T08:04:01.093Z,6.92
2023-03-28T08:05:01.051Z,6.88
2023-03-28T08:06:01.003Z,6.88
2023-03-28T08:07:00.956Z,6.88
2023-03-28T08:08:00.936Z,6.92
2023-03-28T08:09:00.936Z,7.07
2023-03-28T08:10:00.911Z,7.10
2023-03-28T08:11:00.965Z,7.18
2023-03-28T08:12:00.916Z,7.39
2023-03-28T08:13:00.920Z,7.77
2023-03-28T08:14:00.860Z,8.16
2023-03-28T08:15:00.839Z,8.53
2023-03-28T08:16:00.844Z,8.89
2023-03-28T08:17:00.879Z,9.21
2023-03-28T08:18:00.865Z,9.44
2023-03-28T08:19:10.479Z,9.65
2023-03-28T08:20:01.787Z,9.94
2023-03-28T08:21:00.972Z,10.22
2023-03-28T08:22:00.776Z,10.57
2023-03-28T08:23:00.754Z,10.74
2023-03-28T08:24:00.737Z,10.81
2023-03-28T08:25:00.733Z,10.75
2023-03-28T08:26:00.699Z,10.89
2023-03-28T08:27:00.739Z,10.89
2023-03-28T08:28:00.688Z,10.74
2023-03-28T08:29:00.675Z,10.93
2023-03-28T08:30:00.677Z,11.17
2023-03-28T08:31:01.052Z,11.50
2023-03-28T08:32:00.652Z,11.70
2023-03-28T08:33:00.647Z,11.95
2023-03-28T08:34:00.612Z,12.25
2023-03-28T08:35:00.591Z,12.32
2023-03-28T08:36:00.672Z,12.40
2023-03-28T08:37:00.570Z,12.49
2023-03-28T08:38:00.555Z,12.83
2023-03-28T08:39:00.718Z,13.13
2023-03-28T08:40:00.524Z,13.18
2023-03-28T08:41:00.642Z,13.08
2023-03-28T08:42:00.522Z,13.03
2023-03-28T08:43:00.472Z,12.82
2023-03-28T08:44:00.478Z,12.58
2023-03-28T08:45:00.516Z,12.39
2023-03-28T08:46:00.444Z,12.62
2023-03-28T08:47:00.508Z,12.98
2023-03-28T08:48:00.476Z,13.37
2023-03-28T08:49:00.401Z,13.57
2023-03-28T08:50:00.398Z,13.50
2023-03-28T08:51:00.595Z,13.35
2023-03-28T08:52:00.414Z,13.35
2023-03-28T08:53:00.345Z,13.19
2023-03-28T08:54:00.342Z,13.16
2023-03-28T08:55:00.330Z,13.13
2023-03-28T08:56:00.308Z,13.00
2023-03-28T08:57:00.354Z,12.86
2023-03-28T08:58:00.297Z,12.91
2023-03-28T08:59:00.262Z,12.80
2023-03-28T09:00:00.269Z,12.72
2023-03-28T09:01:00.463Z,12.68
2023-03-28T09:02:00.292Z,12.70
2023-03-28T09:03:00.294Z,12.58
2023-03-28T09:04:00.359Z,12.50
2023-03-28T09:05:12.100Z,12.45
2023-03-28T09:06:01.505Z,12.37
2023-03-28T09:07:00.178Z,12.32
2023-03-28T09:08:00.152Z,12.27
2023-03-28T09:09:00.139Z,12.17
2023-03-28T09:10:00.221Z,12.03
2023-03-28T09:11:00.454Z,11.88
2023-03-28T09:12:00.138Z,11.78
2023-03-28T09:13:00.115Z,11.81
2023-03-28T09:14:00.073Z,12.04
2023-03-28T09:15:00.110Z,12.37
2023-03-28T09:16:00.121Z,12.76
2023-03-28T09:17:00.048Z,13.13
2023-03-28T09:18:00.075Z,13.42
2023-03-28T09:19:00.015Z,13.57
2023-03-28T09:20:00.005Z,13.75
2023-03-28T09:21:00.139Z,13.95
2023-03-28T09:22:12.766Z,14.33
2023-03-28T09:23:00.947Z,14.68
2023-03-28T09:23:59.949Z,14.91
2023-03-28T09:24:59.927Z,15.14
2023-03-28T09:26:01.517Z,15.17
2023-03-28T09:26:59.952Z,15.39
2023-03-28T09:27:59.883Z,15.62
2023-03-28T09:28:59.871Z,15.77
2023-03-28T09:29:59.874Z,15.61
2023-03-28T09:31:00.053Z,15.55
2023-03-28T09:31:59.980Z,15.39
2023-03-28T09:32:59.851Z,15.54
2023-03-28T09:33:59.812Z,15.82
2023-03-28T09:34:59.789Z,15.90
2023-03-28T09:35:59.803Z,15.68
2023-03-28T09:36:59.783Z,15.44
2023-03-28T09:37:59.773Z,15.17
2023-03-28T09:38:59.738Z,14.88
2023-03-28T09:39:59.736Z,14.79
2023-03-28T09:40:59.972Z,14.59
2023-03-28T09:41:59.871Z,14.44
2023-03-28T09:42:59.693Z,14.44
2023-03-28T09:43:59.702Z,14.29
2023-03-28T09:44:59.662Z,14.25
2023-03-28T09:45:59.703Z,14.17
2023-03-28T09:46:59.652Z,14.05
2023-03-28T09:47:59.716Z,13.90
2023-03-28T09:48:59.768Z,13.96
2023-03-28T09:50:11.837Z,14.36
2023-03-28T09:51:00.832Z,14.82
2023-03-28T09:51:59.577Z,15.09
2023-03-28T09:52:59.653Z,15.09
2023-03-28T09:53:59.565Z,15.21
2023-03-28T09:54:59.543Z,15.27
2023-03-28T09:56:04.443Z,15.21
2023-03-28T09:57:00.619Z,15.27
2023-03-28T09:57:59.584Z,15.33
2023-03-28T09:58:59.510Z,15.21
2023-03-28T09:59:59.496Z,15.03
2023-03-28T10:00:59.769Z,14.96
2023-03-28T10:01:59.552Z,14.88
2023-03-28T10:02:59.452Z,14.89
2023-03-28T10:03:59.508Z,15.22
2023-03-28T10:04:59.491Z,15.65
2023-03-28T10:05:59.435Z,15.98
2023-03-28T10:06:59.415Z,15.98
2023-03-28T10:07:59.394Z,15.86
2023-03-28T10:08:59.367Z,15.84
2023-03-28T10:09:59.362Z,15.92
2023-03-28T10:10:59.520Z,15.91
2023-03-28T10:11:59.327Z,15.79
2023-03-28T10:12:59.357Z,15.83
2023-03-28T10:13:59.283Z,16.12
2023-03-28T10:14:59.266Z,16.17
2023-03-28T10:15:59.383Z,16.01
2023-03-28T10:16:59.257Z,15.83
2023-03-28T10:17:59.344Z,15.65
2023-03-28T10:18:59.230Z,15.49
2023-03-28T10:19:59.242Z,15.35
2023-03-28T10:20:59.452Z,15.17
2023-03-28T10:21:59.206Z,15.04
2023-03-28T10:22:59.202Z,14.92
2023-03-28T10:23:59.187Z,14.81
2023-03-28T10:24:59.141Z,14.66
2023-03-28T10:25:59.271Z,14.55
2023-03-28T10:26:59.134Z,14.47
2023-03-28T10:27:59.150Z,14.40
2023-03-28T10:28:59.244Z,14.32
2023-03-28T10:29:59.109Z,14.25
2023-03-28T10:30:59.421Z,14.17
2023-03-28T10:31:59.052Z,14.10
2023-03-28T10:32:59.095Z,14.07
2023-03-28T10:33:59.057Z,14.05
2023-03-28T10:34:59.084Z,14.07
2023-03-28T10:35:59.110Z,14.11
2023-03-28T10:36:58.988Z,14.20
2023-03-28T10:37:59.006Z,14.29
2023-03-28T10:38:58.986Z,14.30
2023-03-28T10:39:59.069Z,14.32
2023-03-28T10:40:59.221Z,14.30
2023-03-28T10:41:58.919Z,14.29
2023-03-28T10:42:58.945Z,14.26
2023-03-28T10:43:58.919Z,14.23
2023-03-28T10:44:58.899Z,14.18
2023-03-28T10:45:58.933Z,14.14
2023-03-28T10:46:58.890Z,14.11
2023-03-28T10:47:58.941Z,14.05
2023-03-28T10:48:58.836Z,14.03
2023-03-28T10:49:58.834Z,13.97
2023-03-28T10:50:59.088Z,13.93
2023-03-28T10:51:58.785Z,13.92
2023-03-28T10:52:58.805Z,13.92
2023-03-28T10:53:58.775Z,13.95
2023-03-28T10:54:58.762Z,13.97
2023-03-28T10:55:59.998Z,14.00
2023-03-28T10:56:58.790Z,14.05
2023-03-28T10:57:58.805Z,14.07
2023-03-28T10:58:58.733Z,14.10
2023-03-28T10:59:58.696Z,14.11
2023-03-28T11:00:58.923Z,14.11
2023-03-28T11:01:58.739Z,14.12
2023-03-28T11:02:58.778Z,14.11
2023-03-28T11:03:58.737Z,14.10
2023-03-28T11:04:58.634Z,14.10
2023-03-28T11:06:08.984Z,14.08
2023-03-28T11:06:59.614Z,14.07
2023-03-28T11:07:58.595Z,14.04
2023-03-28T11:08:58.609Z,14.03
2023-03-28T11:09:58.556Z,13.99
2023-03-28T11:10:58.669Z,13.99
2023-03-28T11:11:58.549Z,13.99
2023-03-28T11:12:59.223Z,13.99
2023-03-28T11:13:58.559Z,13.97
2023-03-28T11:14:58.493Z,14.03
2023-03-28T11:15:58.516Z,14.03
2023-03-28T11:16:58.482Z,14.05
2023-03-28T11:17:58.555Z,14.07
2023-03-28T11:18:58.438Z,14.10
2023-03-28T11:19:58.434Z,14.12
2023-03-28T11:20:58.631Z,14.14
2023-03-28T11:21:58.407Z,14.17
2023-03-28T11:23:05.676Z,14.15
2023-03-28T11:23:59.397Z,14.15
2023-03-28T11:25:01.088Z,14.14
2023-03-28T11:25:58.366Z,14.11
2023-03-28T11:27:12.603Z,14.07
2023-03-28T11:27:59.349Z,14.05
2023-03-28T11:28:58.320Z,14.04
2023-03-28T11:29:58.286Z,14.03
2023-03-28T11:30:58.576Z,14.04
2023-03-28T11:31:58.271Z,14.05
2023-03-28T11:32:58.270Z,14.11
2023-03-28T11:33:58.262Z,14.08
2023-03-28T11:34:58.230Z,14.08
2023-03-28T11:35:58.241Z,14.04
2023-03-28T11:36:58.198Z,14.00
2023-03-28T11:37:58.212Z,13.97
2023-03-28T11:38:58.174Z,13.92
2023-03-28T11:39:58.186Z,13.87
2023-03-28T11:40:58.324Z,13.83
2023-03-28T11:41:58.135Z,13.78
2023-03-28T11:42:58.146Z,13.72
2023-03-28T11:43:58.125Z,13.70
2023-03-28T11:44:58.129Z,13.63
2023-03-28T11:45:58.134Z,13.57
2023-03-28T11:46:58.079Z,13.53
2023-03-28T11:47:58.101Z,13.49
2023-03-28T11:48:58.049Z,13.44
2023-03-28T11:49:58.043Z,13.42
2023-03-28T11:50:58.288Z,13.41
2023-03-28T11:51:58.004Z,13.38
2023-03-28T11:52:58.031Z,13.38
2023-03-28T11:53:57.989Z,13.37
2023-03-28T11:54:57.989Z,13.37
2023-03-28T11:55:58.160Z,13.33
2023-03-28T11:56:57.985Z,13.30
2023-03-28T11:57:58.034Z,13.28
2023-03-28T11:58:57.933Z,13.22
2023-03-28T11:59:57.910Z,13.16
2023-03-28T12:00:58.158Z,13.09
2023-03-28T12:01:57.905Z,13.03
2023-03-28T12:02:57.977Z,12.95
2023-03-28T12:03:57.960Z,12.90
2023-03-28T12:04:57.844Z,12.82
2023-03-28T12:06:04.097Z,12.75
2023-03-28T12:07:02.908Z,12.70
2023-03-28T12:07:57.814Z,12.62
2023-03-28T12:08:57.796Z,12.54
2023-03-28T12:09:57.778Z,12.47
2023-03-28T12:10:57.917Z,12.45
2023-03-28T12:11:57.791Z,12.40
2023-03-28T12:12:57.748Z,12.35
2023-03-28T12:14:05.229Z,12.31
2023-03-28T12:14:58.722Z,12.27
2023-03-28T12:15:57.697Z,12.24
2023-03-28T12:16:57.696Z,12.24
2023-03-28T12:17:57.789Z,12.25
2023-03-28T12:18:57.643Z,12.27
2023-03-28T12:19:57.661Z,12.35
2023-03-28T12:20:57.797Z,12.40
2023-03-28T12:21:57.609Z,12.47
2023-03-28T12:22:57.654Z,12.53
2023-03-28T12:23:57.601Z,12.57
2023-03-28T12:24:57.576Z,12.61
2023-03-28T12:25:57.553Z,12.61
2023-03-28T12:26:57.534Z,12.62
2023-03-28T12:27:57.566Z,12.61
2023-03-28T12:28:57.514Z,12.62
2023-03-28T12:29:57.513Z,12.61
2023-03-28T12:30:57.575Z,12.60
2023-03-28T12:31:57.482Z,12.57
2023-03-28T12:32:57.658Z,12.53
2023-03-28T12:33:57.488Z,12.49
2023-03-28T12:34:57.438Z,12.45
2023-03-28T12:35:57.503Z,12.37
2023-03-28T12:36:57.427Z,12.36
2023-03-28T12:37:57.417Z,12.29
2023-03-28T12:38:57.385Z,12.22
2023-03-28T12:39:57.374Z,12.20
2023-03-28T12:40:57.481Z,12.12
2023-03-28T12:41:57.354Z,12.06
2023-03-28T12:42:57.334Z,12.00
2023-03-28T12:43:57.340Z,11.94
2023-03-28T12:44:57.311Z,11.88
2023-03-28T12:45:57.334Z,11.84
2023-03-28T12:46:57.281Z,11.80
2023-03-28T12:47:57.332Z,11.75
2023-03-28T12:48:57.273Z,11.73
2023-03-28T12:49:57.242Z,11.72
2023-03-28T12:50:57.244Z,11.70
2023-03-28T12:51:57.216Z,11.69
2023-03-28T12:52:57.213Z,11.72
2023-03-28T12:53:57.206Z,11.70
2023-03-28T12:54:58.992Z,11.70
2023-03-28T12:55:57.219Z,11.73
2023-03-28T12:56:57.201Z,11.73
2023-03-28T12:57:57.153Z,11.75
2023-03-28T12:58:57.137Z,11.77
2023-03-28T12:59:57.098Z,11.75
2023-03-28T13:00:57.100Z,11.77
2023-03-28T13:01:57.151Z,11.77
2023-03-28T13:02:57.092Z,11.80
2023-03-28T13:03:57.130Z,11.83
2023-03-28T13:04:57.081Z,11.90
2023-03-28T13:05:57.019Z,11.94
2023-03-28T13:06:57.025Z,12.02
2023-03-28T13:07:56.995Z,12.07